createdAt,value
2023-04-21T00:02:18.828Z,19.77
2023-04-21T00:07:23.674Z,23.55
2023-04-21T00:12:29.423Z,23.83
2023-04-21T00:17:33.616Z,28.83
2023-04-21T00:22:38.046Z,29.52
2023-04-21T00:27:43.759Z,20.60
2023-04-21T00:32:48.194Z,27.27
2023-04-21T00:37:53.066Z,29.00
2023-04-21T00:42:59.206Z,21.92
2023-04-21T00:48:06.233Z,23.33
2023-04-21T00:53:11.171Z,23.90
2023-04-21T00:58:16.713Z,26.10
2023-04-21T01:03:21.244Z,25.13
2023-04-21T01:08:25.572Z,27.40
2023-04-21T01:13:31.382Z,22.25
2023-04-21T01:18:36.673Z,18.88
2023-04-21T01:23:45.452Z,22.67
2023-04-21T01:28:50.133Z,26.60
2023-04-21T01:33:54.617Z,25.48
2023-04-21T01:39:00.415Z,28.50
2023-04-21T01:44:07.279Z,26.60
2023-04-21T01:49:11.785Z,22.20
2023-04-21T01:54:17.475Z,22.30
2023-04-21T01:59:22.017Z,28.33
2023-04-21T02:04:26.373Z,25.17
2023-04-21T02:09:33.057Z,28.95
2023-04-21T02:14:38.755Z,28.10
2023-04-21T02:19:44.838Z,27.20
2023-04-21T02:24:50.645Z,27.65
2023-04-21T02:29:56.921Z,19.08
2023-04-21T02:35:01.366Z,30.38
2023-04-21T02:40:08.427Z,23.13
2023-04-21T02:45:13.514Z,33.47
2023-04-21T02:50:17.744Z,36.22
2023-04-21T02:55:23.533Z,23.08
2023-04-21T03:00:27.982Z,26.27
2023-04-21T03:05:32.499Z,24.85
2023-04-21T03:10:40.102Z,33.70
2023-04-21T03:15:45.162Z,22.45
2023-04-21T03:20:49.664Z,27.98
2023-04-21T03:25:55.230Z,26.88
2023-04-21T03:30:59.347Z,25.92
2023-04-21T03:36:04.458Z,27.70
2023-04-21T03:41:09.923Z,23.05
2023-04-21T03:46:23.702Z,35.97
2023-04-21T03:51:28.410Z,44.83
2023-04-21T03:56:34.205Z,53.40
2023-04-21T04:01:38.437Z,175.90
2023-04-21T04:06:42.619Z,70.50
2023-04-21T04:11:48.314Z,84.00
2023-04-21T04:16:52.684Z,68.50
2023-04-21T04:21:57.177Z,40.47
2023-04-21T04:27:03.514Z,38.70
2023-04-21T04:32:11.311Z,50.85
2023-04-21T04:37:15.495Z,53.50
2023-04-21T04:42:21.401Z,41.45
2023-04-21T04:47:26.348Z,51.25
2023-04-21T04:52:30.937Z,33.05
2023-04-21T04:57:36.650Z,42.92
2023-04-21T05:02:41.259Z,99.55
2023-04-21T05:07:46.082Z,78.85
2023-04-21T05:12:52.265Z,61.22
2023-04-21T05:17:56.776Z,49.03
2023-04-21T05:23:01.632Z,32.05
2023-04-21T05:28:07.292Z,21.67
2023-04-21T05:33:11.904Z,25.40
2023-04-21T05:38:16.457Z,59.67
2023-04-21T05:43:22.798Z,42.75
2023-04-21T05:48:27.245Z,32.80
2023-04-21T05:53:31.459Z,246.32
2023-04-21T05:58:37.479Z,540.85
2023-04-21T06:03:42.209Z,260.40
2023-04-21T06:08:46.630Z,361.17
2023-04-21T06:13:53.924Z,169.43
2023-04-21T06:18:59.322Z,234.40
2023-04-21T06:24:03.820Z,47.45
2023-04-21T06:29:12.234Z,251.93
2023-04-21T06:34:17.252Z,170.98
2023-04-21T06:39:21.719Z,186.52
2023-04-21T06:44:27.275Z,101.63
2023-04-21T06:49:31.436Z,153.77
2023-04-21T06:54:35.791Z,81.38
2023-04-21T06:59:41.451Z,111.43
2023-04-21T07:04:45.775Z,130.07
2023-04-21T07:09:50.517Z,107.65
2023-04-21T07:14:56.204Z,137.00
2023-04-21T07:20:00.421Z,205.35
2023-04-21T07:25:06.550Z,101.40
2023-04-21T07:30:13.299Z,69.88
2023-04-21T07:35:17.999Z,19.20
2023-04-21T07:40:22.627Z,38.40
2023-04-21T07:45:28.273Z,20.90
2023-04-21T07:50:32.863Z,43.17
2023-04-21T07:55:37.502Z,40.63
2023-04-21T08:00:43.935Z,19.15
2023-04-21T08:12:55.647Z,15.57
2023-04-21T08:18:02.308Z,19.92
2023-04-21T08:28:39.514Z,47.45
2023-04-21T08:33:58.062Z,28.88
2023-04-21T08:39:11.536Z,22.20
2023-04-21T08:44:27.033Z,26.38
2023-04-21T08:49:58.905Z,11.13
2023-04-21T08:55:09.451Z,10.40
2023-04-21T09:00:18.706Z,15.77
2023-04-21T09:06:36.536Z,25.63
2023-04-21T09:18:19.894Z,13.95
2023-04-21T09:23:24.954Z,21.75
2023-04-21T09:28:33.430Z,22.45
2023-04-21T09:33:49.589Z,8.20
2023-04-21T09:39:30.036Z,12.13
2023-04-21T09:56:00.041Z,10.48
2023-04-21T10:01:04.952Z,13.40
2023-04-21T10:12:54.036Z,13.00
2023-04-21T10:18:13.552Z,8.43
2023-04-21T10:29:17.054Z,8.10
2023-04-21T10:34:23.876Z,9.85
2023-04-21T10:39:33.749Z,7.88
2023-04-21T10:51:08.783Z,10.48
2023-04-21T10:56:14.031Z,14.57
2023-04-21T11:08:31.379Z,6.18
2023-04-21T11:13:35.872Z,11.02
2023-04-21T11:18:42.394Z,6.57
2023-04-21T11:23:59.070Z,5.85
2023-04-21T11:34:48.109Z,11.85
2023-04-21T11:40:28.744Z,5.50
2023-04-21T11:51:40.494Z,4.65
2023-04-21T11:56:49.119Z,7.90
2023-04-21T12:01:55.331Z,6.90
2023-04-21T12:13:32.735Z,9.45
2023-04-21T12:18:37.961Z,4.75
2023-04-21T12:23:42.107Z,6.57
2023-04-21T12:29:39.345Z,5.38
2023-04-21T12:41:36.616Z,4.90
2023-04-21T12:46:41.086Z,5.88
2023-04-21T12:51:45.751Z,6.22
2023-04-21T12:56:51.750Z,9.52
2023-04-21T13:01:56.700Z,21.83
2023-04-21T13:07:01.569Z,4.10
2023-04-21T13:12:07.691Z,11.55
2023-04-21T13:17:12.826Z,5.38
2023-04-21T13:22:17.356Z,7.55
2023-04-21T13:27:22.944Z,6.57
2023-04-21T13:32:27.533Z,5.10
2023-04-21T13:37:31.800Z,6.22
2023-04-21T13:42:37.931Z,4.30
2023-04-21T13:47:42.457Z,4.75
2023-04-21T13:52:46.757Z,28.38
2023-04-21T13:57:52.858Z,8.82
2023-04-21T14:02:57.580Z,9.32
2023-04-21T14:08:02.028Z,4.68
2023-04-21T14:13:07.814Z,4.80
2023-04-21T14:18:12.259Z,3.17
2023-04-21T14:23:16.873Z,9.13
2023-04-21T14:28:22.801Z,5.55
2023-04-21T14:33:27.070Z,13.77
2023-04-21T14:38:31.393Z,5.82
2023-04-21T14:43:37.020Z,4.95
2023-04-21T14:48:42.350Z,4.50
2023-04-21T14:53:47.207Z,5.07
2023-04-21T14:58:52.731Z,3.75
2023-04-21T15:04:00.000Z,6.53
2023-04-21T15:09:05.562Z,4.68
2023-04-21T15:14:11.172Z,4.80
2023-04-21T15:19:15.708Z,4.03
2023-04-21T15:24:20.083Z,4.03
2023-04-21T15:29:25.877Z,24.52
2023-04-21T15:34:30.325Z,40.70
2023-04-21T15:39:34.914Z,14.05
2023-04-21T15:44:40.994Z,5.72
2023-04-21T15:49:45.561Z,6.30
2023-04-21T15:54:51.283Z,6.53
2023-04-21T15:59:57.808Z,11.23
2023-04-21T16:05:02.532Z,4.82
2023-04-21T16:10:08.373Z,5.10
2023-04-21T16:15:23.736Z,9.82
2023-04-21T16:20:29.252Z,8.80
2023-04-21T16:25:33.919Z,20.13
2023-04-21T16:30:43.670Z,24.90
2023-04-21T16:35:48.452Z,29.40
2023-04-21T16:40:53.152Z,64.57
2023-04-21T16:45:59.029Z,27.58
2023-04-21T16:51:03.732Z,9.23
2023-04-21T16:56:08.783Z,6.75
2023-04-21T17:01:14.680Z,7.35
2023-04-21T17:06:21.598Z,4.63
2023-04-21T17:11:25.753Z,10.68
2023-04-21T17:16:32.075Z,6.40
2023-04-21T17:21:36.563Z,7.70
2023-04-21T17:26:41.021Z,16.00
2023-04-21T17:31:47.002Z,11.82
2023-04-21T17:36:51.443Z,12.05
2023-04-21T17:41:55.995Z,17.08
2023-04-21T17:47:02.287Z,14.73
2023-04-21T17:52:08.214Z,13.80
2023-04-21T17:57:14.635Z,15.93
2023-04-21T18:02:20.242Z,18.42
2023-04-21T18:07:24.757Z,18.70
2023-04-21T18:12:29.312Z,24.15
2023-04-21T18:17:37.178Z,23.00
2023-04-21T18:22:43.049Z,28.42
2023-04-21T18:27:47.266Z,24.80
2023-04-21T18:32:53.391Z,39.45
2023-04-21T18:37:57.907Z,52.72
2023-04-21T18:43:02.092Z,32.85
2023-04-21T18:48:08.436Z,22.17
2023-04-21T18:53:12.699Z,33.22
2023-04-21T18:58:17.388Z,39.47
2023-04-21T19:03:25.350Z,18.95
2023-04-21T19:13:48.497Z,19.90
2023-04-21T19:18:54.313Z,26.30
2023-04-21T19:23:58.654Z,47.58
2023-04-21T19:29:03.018Z,54.15
2023-04-21T19:34:08.618Z,57.20
2023-04-21T19:39:13.393Z,22.92
2023-04-21T19:44:17.944Z,25.50
2023-04-21T19:49:24.176Z,32.92
2023-04-21T19:54:28.598Z,16.77
2023-04-21T19:59:34.761Z,24.98
2023-04-21T20:04:40.866Z,26.52
2023-04-21T20:09:45.307Z,36.95
2023-04-21T20:14:49.605Z,30.50
2023-04-21T20:19:55.402Z,71.57
2023-04-21T20:24:59.704Z,46.38
2023-04-21T20:30:04.228Z,33.25
2023-04-21T20:35:11.996Z,39.10
2023-04-21T20:40:18.870Z,73.45
2023-04-21T20:45:23.181Z,43.28
2023-04-21T20:50:29.027Z,48.40
2023-04-21T20:55:33.305Z,92.35
2023-04-21T21:00:37.533Z,129.85
2023-04-21T21:05:43.643Z,142.13
2023-04-21T21:10:47.837Z,163.65
2023-04-21T21:15:52.428Z,58.42
2023-04-21T21:20:58.156Z,65.57
2023-04-21T21:26:02.533Z,43.05
2023-04-21T21:31:07.148Z,185.82
2023-04-21T21:36:12.820Z,56.67
2023-04-21T21:41:18.805Z,54.50
2023-04-21T21:46:23.646Z,159.70
2023-04-21T21:51:30.191Z,48.47
2023-04-21T21:56:34.684Z,47.65
2023-04-21T22:01:38.942Z,67.45
2023-04-21T22:06:45.805Z,120.97
2023-04-21T22:11:49.977Z,96.88
2023-04-21T22:16:54.554Z,56.55
2023-04-21T22:22:00.230Z,50.70
2023-04-21T22:27:04.634Z,190.98
2023-04-21T22:32:08.764Z,329.88
2023-04-21T22:37:14.490Z,281.55
2023-04-21T22:42:19.127Z,219.52
2023-04-21T22:47:23.642Z,379.42
2023-04-21T22:52:29.244Z,247.23
2023-04-21T22:57:34.007Z,361.77
2023-04-21T23:02:38.772Z,164.10
2023-04-21T23:07:44.688Z,140.95
2023-04-21T23:12:49.219Z,55.70
2023-04-21T23:17:53.512Z,100.55
2023-04-21T23:22:59.338Z,37.88
2023-04-21T23:28:03.720Z,34.60
2023-04-21T23:33:08.130Z,53.95
2023-04-21T23:38:13.899Z,24.80
2023-04-21T23:43:18.099Z,33.45
2023-04-21T23:48:22.490Z,21.60
2023-04-21T23:53:28.160Z,25.17
2023-04-21T23:58:32.578Z,47.95
